createdAt,value
2019-02-05T00:03:20.819Z,14.27
2019-02-05T00:07:24.286Z,13.03
2019-02-05T00:11:27.749Z,14.40
2019-02-05T00:15:31.208Z,12.63
2019-02-05T00:19:34.669Z,16.27
2019-02-05T00:23:38.120Z,12.33
2019-02-05T00:27:41.574Z,16.10
2019-02-05T00:31:45.026Z,14.87
2019-02-05T00:35:48.491Z,18.07
2019-02-05T00:39:51.938Z,18.17
2019-02-05T00:43:55.410Z,25.03
2019-02-05T00:47:58.871Z,16.03
2019-02-05T00:52:02.332Z,16.93
2019-02-05T00:56:17.142Z,12.30
2019-02-05T01:00:11.245Z,13.23
2019-02-05T01:04:14.704Z,12.23
2019-02-05T01:08:18.168Z,13.97
2019-02-05T01:12:21.625Z,20.13
2019-02-05T01:16:25.083Z,12.63
2019-02-05T01:20:28.532Z,13.43
2019-02-05T01:24:32.016Z,14.50
2019-02-05T01:28:35.474Z,15.50
2019-02-05T01:32:38.936Z,13.43
2019-02-05T01:36:42.395Z,15.77
2019-02-05T01:40:45.843Z,16.63
2019-02-05T01:44:49.299Z,13.07
2019-02-05T01:48:53.131Z,13.63
2019-02-05T01:52:56.587Z,14.23
2019-02-05T01:57:00.041Z,14.13
2019-02-05T02:01:03.492Z,14.43
2019-02-05T02:05:06.955Z,14.20
2019-02-05T02:09:10.416Z,15.70
2019-02-05T02:13:13.871Z,14.47
2019-02-05T02:17:17.382Z,15.77
2019-02-05T02:21:20.785Z,16.37
2019-02-05T02:25:24.242Z,16.70
2019-02-05T02:29:27.702Z,15.20
2019-02-05T02:33:31.157Z,16.40
2019-02-05T02:37:34.600Z,18.90
2019-02-05T02:41:38.066Z,16.93
2019-02-05T02:45:41.519Z,15.27
2019-02-05T02:49:45.257Z,15.20
2019-02-05T02:53:48.719Z,16.57
2019-02-05T02:57:52.343Z,14.23
2019-02-05T03:01:55.803Z,15.63
2019-02-05T03:05:59.265Z,15.57
2019-02-05T03:10:02.740Z,13.83
2019-02-05T03:14:06.249Z,16.70
2019-02-05T03:18:09.702Z,18.03
2019-02-05T03:22:13.180Z,17.43
2019-02-05T03:26:16.643Z,16.23
2019-02-05T03:30:20.181Z,11.97
2019-02-05T03:34:23.626Z,14.40
2019-02-05T03:38:27.155Z,12.87
2019-02-05T03:42:30.617Z,12.73
2019-02-05T03:46:34.075Z,13.77
2019-02-05T03:50:37.537Z,14.40
2019-02-05T03:54:41.057Z,17.33
2019-02-05T03:58:44.511Z,11.47
2019-02-05T04:02:47.968Z,15.60
2019-02-05T04:06:51.433Z,13.87
2019-02-05T04:10:54.887Z,13.53
2019-02-05T04:14:58.341Z,13.63
2019-02-05T04:19:01.795Z,14.37
2019-02-05T04:23:05.262Z,12.27
2019-02-05T04:27:08.715Z,15.83
2019-02-05T04:31:12.177Z,15.20
2019-02-05T04:35:15.628Z,17.27
2019-02-05T04:39:19.085Z,13.50
2019-02-05T04:43:22.546Z,12.27
2019-02-05T04:47:26.977Z,13.80
2019-02-05T04:51:30.434Z,14.87
2019-02-05T04:55:34.163Z,17.37
2019-02-05T04:59:37.612Z,14.40
2019-02-05T05:03:41.072Z,11.53
2019-02-05T05:07:44.533Z,13.83
2019-02-05T05:11:47.992Z,12.63
2019-02-05T05:15:51.440Z,15.33
2019-02-05T05:19:54.895Z,12.67
2019-02-05T05:23:58.358Z,11.40
2019-02-05T05:28:09.664Z,17.57
2019-02-05T05:32:06.957Z,43.30
2019-02-05T05:36:10.442Z,27.13
2019-02-05T05:40:13.909Z,21.27
2019-02-05T05:44:17.376Z,21.50
2019-02-05T05:48:20.854Z,23.70
2019-02-05T05:52:24.291Z,18.80
2019-02-05T05:56:27.765Z,18.07
2019-02-05T06:00:31.226Z,17.60
2019-02-05T06:04:35.655Z,18.63
2019-02-05T06:08:39.125Z,25.30
2019-02-05T06:12:42.571Z,18.23
2019-02-05T06:16:46.028Z,15.87
2019-02-05T06:20:49.486Z,15.87
2019-02-05T06:24:52.950Z,15.40
2019-02-05T06:28:56.399Z,15.53
2019-02-05T06:32:59.849Z,16.27
2019-02-05T06:37:03.314Z,16.63
2019-02-05T06:41:06.895Z,18.47
2019-02-05T06:45:10.681Z,15.97
2019-02-05T06:49:14.140Z,16.53
2019-02-05T06:53:17.966Z,23.53
2019-02-05T06:57:21.428Z,14.07
2019-02-05T07:01:25.160Z,16.30
2019-02-05T07:05:28.615Z,14.23
2019-02-05T07:09:32.140Z,15.33
2019-02-05T07:13:35.596Z,19.57
2019-02-05T07:17:49.396Z,18.07
2019-02-05T07:21:44.230Z,15.43
2019-02-05T07:25:47.697Z,17.03
2019-02-05T07:29:51.138Z,17.33
2019-02-05T07:33:54.600Z,15.77
2019-02-05T07:37:58.083Z,17.23
2019-02-05T07:42:01.521Z,19.17
2019-02-05T07:46:04.983Z,17.40
2019-02-05T07:50:08.438Z,15.00
2019-02-05T07:54:11.899Z,17.47
2019-02-05T07:58:15.379Z,16.70
2019-02-05T08:02:18.842Z,19.07
2019-02-05T08:06:22.302Z,19.83
2019-02-05T08:10:25.753Z,17.47
2019-02-05T08:14:30.196Z,15.67
2019-02-05T08:18:33.721Z,15.07
2019-02-05T08:22:37.575Z,14.70
2019-02-05T08:26:41.144Z,17.33
2019-02-05T08:30:44.948Z,14.73
2019-02-05T08:34:48.412Z,16.77
2019-02-05T08:38:52.255Z,13.50
2019-02-05T08:42:55.716Z,17.10
2019-02-05T08:46:59.443Z,13.20
2019-02-05T08:51:02.901Z,18.50
2019-02-05T08:55:06.643Z,13.57
2019-02-05T08:59:10.101Z,13.87
2019-02-05T09:03:13.637Z,12.57
2019-02-05T09:07:17.088Z,13.73
2019-02-05T09:11:20.869Z,13.47
2019-02-05T09:15:29.416Z,12.83
2019-02-05T09:19:30.558Z,13.67
2019-02-05T09:23:34.029Z,15.17
2019-02-05T09:27:37.478Z,13.67
2019-02-05T09:31:40.933Z,16.47
2019-02-05T09:35:44.419Z,11.73
2019-02-05T09:39:47.876Z,14.37
2019-02-05T09:43:51.339Z,13.03
2019-02-05T09:47:54.796Z,13.10
2019-02-05T09:51:58.261Z,12.70
2019-02-05T09:56:01.717Z,15.27
2019-02-05T10:00:05.172Z,14.67
2019-02-05T10:04:10.009Z,14.27
2019-02-05T10:08:13.475Z,13.03
2019-02-05T10:12:16.935Z,14.23
2019-02-05T10:16:20.390Z,15.20
2019-02-05T10:20:23.849Z,16.50
2019-02-05T10:24:27.317Z,13.07
2019-02-05T10:28:30.772Z,19.43
2019-02-05T10:32:34.233Z,16.70
2019-02-05T10:36:37.698Z,12.07
2019-02-05T10:40:41.158Z,15.27
2019-02-05T10:44:44.607Z,13.60
2019-02-05T10:48:48.160Z,15.03
2019-02-05T10:52:52.673Z,15.20
2019-02-05T10:56:56.139Z,13.83
2019-02-05T11:00:59.594Z,12.50
2019-02-05T11:05:03.056Z,11.47
2019-02-05T11:09:06.512Z,12.43
2019-02-05T11:13:09.973Z,14.17
2019-02-05T11:17:13.426Z,14.63
2019-02-05T11:21:16.897Z,15.80
2019-02-05T11:25:20.344Z,16.03
2019-02-05T11:29:23.800Z,16.23
2019-02-05T11:33:27.263Z,15.70
2019-02-05T11:37:30.726Z,13.80
2019-02-05T11:41:34.269Z,18.17
2019-02-05T11:45:37.654Z,14.27
2019-02-05T11:49:41.109Z,12.77
2019-02-05T11:53:44.573Z,13.43
2019-02-05T11:57:48.043Z,17.33
2019-02-05T12:01:52.564Z,13.43
2019-02-05T12:05:56.017Z,13.10
2019-02-05T12:09:59.474Z,14.50
2019-02-05T12:14:02.945Z,13.67
2019-02-05T12:18:06.404Z,13.93
2019-02-05T12:22:09.852Z,14.50
2019-02-05T12:26:13.303Z,15.30
2019-02-05T12:30:16.773Z,13.67
2019-02-05T12:34:20.234Z,14.13
2019-02-05T12:38:23.694Z,15.73
2019-02-05T12:42:27.148Z,15.23
2019-02-05T12:46:30.608Z,17.20
2019-02-05T12:50:34.073Z,15.23
2019-02-05T12:54:37.821Z,16.37
2019-02-05T12:58:41.277Z,19.13
2019-02-05T13:02:45.005Z,22.47
2019-02-05T13:06:48.468Z,19.07
2019-02-05T13:10:51.925Z,24.53
2019-02-05T13:14:55.398Z,21.07
2019-02-05T13:18:58.863Z,19.73
2019-02-05T13:23:02.316Z,20.13
2019-02-05T13:27:05.783Z,21.30
2019-02-05T13:31:09.255Z,23.37
2019-02-05T13:35:12.719Z,22.60
2019-02-05T13:39:16.180Z,22.90
2019-02-05T13:43:19.640Z,23.03
2019-02-05T13:47:24.740Z,26.53
2019-02-05T13:51:28.464Z,27.87
2019-02-05T13:55:32.184Z,23.63
2019-02-05T13:59:35.648Z,23.60
2019-02-05T14:03:39.096Z,26.17
2019-02-05T14:07:42.566Z,21.17
2019-02-05T14:11:46.023Z,20.33
2019-02-05T14:15:49.495Z,19.93
2019-02-05T14:19:52.961Z,22.67
2019-02-05T14:23:56.429Z,20.23
2019-02-05T14:27:59.900Z,21.33
2019-02-05T14:32:03.365Z,18.80
2019-02-05T14:36:06.816Z,27.23
2019-02-05T14:40:11.364Z,14.63
2019-02-05T14:44:14.816Z,15.00
2019-02-05T14:48:18.280Z,16.10
2019-02-05T14:52:21.792Z,19.67
2019-02-05T14:56:26.890Z,17.47
2019-02-05T15:00:30.351Z,17.27
2019-02-05T15:04:34.074Z,14.50
2019-02-05T15:08:37.528Z,17.40
2019-02-05T15:12:40.994Z,15.77
2019-02-05T15:16:44.457Z,25.93
2019-02-05T15:20:47.905Z,23.23
2019-02-05T15:24:51.369Z,27.77
2019-02-05T15:28:54.836Z,19.47
2019-02-05T15:33:16.330Z,16.43
2019-02-05T15:37:19.779Z,20.23
2019-02-05T15:41:23.245Z,19.03
2019-02-05T15:45:26.757Z,18.17
2019-02-05T15:49:30.220Z,20.90
2019-02-05T15:53:33.676Z,21.63
2019-02-05T15:57:37.139Z,17.00
2019-02-05T16:01:40.601Z,15.60
2019-02-05T16:05:44.046Z,17.07
2019-02-05T16:09:47.589Z,16.87
2019-02-05T16:13:51.053Z,18.43
2019-02-05T16:17:54.514Z,15.40
2019-02-05T16:21:57.978Z,22.60
2019-02-05T16:26:01.810Z,21.33
2019-02-05T16:30:05.275Z,24.07
2019-02-05T16:34:09.022Z,104.50
2019-02-05T16:38:12.508Z,73.97
2019-02-05T16:42:15.985Z,61.47
2019-02-05T16:46:19.445Z,16.93
2019-02-05T16:50:22.903Z,24.07
2019-02-05T16:54:26.371Z,20.47
2019-02-05T16:58:29.832Z,23.20
2019-02-05T17:02:33.316Z,16.03
2019-02-05T17:06:36.765Z,16.70
2019-02-05T17:10:40.223Z,19.23
2019-02-05T17:14:43.685Z,18.87
2019-02-05T17:18:47.216Z,16.43
2019-02-05T17:22:50.669Z,16.63
2019-02-05T17:26:54.129Z,17.97
2019-02-05T17:30:57.596Z,20.50
2019-02-05T17:35:01.544Z,21.83
2019-02-05T17:39:05.014Z,16.30
2019-02-05T17:43:08.463Z,15.43
2019-02-05T17:47:11.937Z,12.57
2019-02-05T17:51:15.395Z,14.60
2019-02-05T17:55:18.855Z,14.63
2019-02-05T17:59:22.325Z,13.37
2019-02-05T18:03:25.786Z,14.17
2019-02-05T18:07:29.237Z,13.77
2019-02-05T18:11:32.705Z,16.00
2019-02-05T18:15:36.167Z,20.63
2019-02-05T18:19:39.630Z,17.20
2019-02-05T18:23:43.088Z,18.90
2019-02-05T18:27:46.547Z,16.90
2019-02-05T18:31:50.009Z,21.83
2019-02-05T18:35:53.750Z,19.53
2019-02-05T18:39:57.236Z,15.57
2019-02-05T18:44:00.767Z,16.30
2019-02-05T18:48:04.258Z,17.83
2019-02-05T18:52:08.495Z,16.10
2019-02-05T18:56:12.059Z,17.23
2019-02-05T19:00:15.569Z,16.47
2019-02-05T19:04:19.023Z,18.37
2019-02-05T19:08:22.491Z,24.33
2019-02-05T19:12:25.960Z,23.97
2019-02-05T19:16:29.428Z,25.37
2019-02-05T19:20:32.895Z,26.47
2019-02-05T19:24:37.987Z,28.13
2019-02-05T19:28:41.449Z,28.10
2019-02-05T19:32:44.992Z,29.60
2019-02-05T19:36:48.455Z,25.17
2019-02-05T19:40:57.623Z,20.60
2019-02-05T19:44:58.996Z,16.13
2019-02-05T19:49:04.139Z,18.53
2019-02-05T19:53:07.561Z,18.70
2019-02-05T19:57:11.104Z,22.27
2019-02-05T20:01:14.952Z,20.90
2019-02-05T20:05:18.401Z,22.43
2019-02-05T20:09:22.140Z,21.67
2019-02-05T20:13:25.610Z,20.43
2019-02-05T20:17:29.349Z,26.63
2019-02-05T20:21:32.824Z,22.03
2019-02-05T20:25:36.561Z,27.17
2019-02-05T20:29:40.055Z,23.37
2019-02-05T20:33:49.884Z,19.60
2019-02-05T20:37:48.885Z,14.63
2019-02-05T20:41:52.795Z,15.87
2019-02-05T20:45:56.509Z,18.27
2019-02-05T20:50:00.798Z,21.87
2019-02-05T20:54:04.263Z,21.20
2019-02-05T20:58:07.724Z,20.57
2019-02-05T21:02:11.178Z,23.17
2019-02-05T21:06:14.641Z,25.03
2019-02-05T21:10:18.112Z,44.57
2019-02-05T21:14:21.583Z,20.23
2019-02-05T21:18:25.052Z,19.37
2019-02-05T21:22:28.502Z,25.70
2019-02-05T21:26:31.972Z,27.03
2019-02-05T21:30:35.442Z,20.90
2019-02-05T21:34:38.905Z,24.27
2019-02-05T21:38:45.347Z,22.03
2019-02-05T21:42:47.525Z,17.13
2019-02-05T21:46:50.985Z,22.40
2019-02-05T21:50:54.454Z,21.73
2019-02-05T21:54:57.925Z,17.73
2019-02-05T21:59:01.409Z,23.40
2019-02-05T22:03:04.853Z,24.93
2019-02-05T22:07:08.311Z,18.90
2019-02-05T22:11:11.767Z,18.07
2019-02-05T22:15:15.236Z,18.00
2019-02-05T22:19:21.017Z,22.50
2019-02-05T22:23:23.841Z,27.70
2019-02-05T22:27:27.306Z,29.37
2019-02-05T22:31:30.764Z,29.10
2019-02-05T22:35:34.237Z,21.53
2019-02-05T22:39:37.683Z,25.77
2019-02-05T22:43:41.152Z,28.57
2019-02-05T22:47:44.616Z,25.87
2019-02-05T22:51:48.352Z,26.03
2019-02-05T22:55:51.928Z,23.03
2019-02-05T22:59:55.677Z,34.77
2019-02-05T23:03:59.137Z,90.00
2019-02-05T23:08:02.602Z,38.67
2019-02-05T23:12:06.085Z,42.87
2019-02-05T23:16:09.528Z,72.13
2019-02-05T23:20:12.987Z,86.30
2019-02-05T23:24:16.458Z,31.00
2019-02-05T23:28:19.921Z,24.97
2019-02-05T23:32:23.390Z,25.23
2019-02-05T23:36:26.841Z,24.33
2019-02-05T23:40:30.583Z,20.27
2019-02-05T23:44:34.041Z,21.80
2019-02-05T23:48:37.501Z,22.47
2019-02-05T23:52:40.966Z,19.40
2019-02-05T23:56:44.413Z,22.17
